sensor_id;sensor_type;location;lat;lon;timestamp;P1;durP1;ratioP1;P2;durP2;ratioP2
42430;SDS011;28070;47.462;19.036;2022-08-20T00:02:12;13.90;;;6.97;;
42430;SDS011;28070;47.462;19.036;2022-08-20T00:04:42;13.30;;;6.80;;
42430;SDS011;28070;47.462;19.036;2022-08-20T00:07:10;14.95;;;6.90;;
42430;SDS011;28070;47.462;19.036;2022-08-20T00:09:41;12.52;;;6.57;;
42430;SDS011;28070;47.462;19.036;2022-08-20T00:12:11;12.90;;;7.50;;
42430;SDS011;28070;47.462;19.036;2022-08-20T00:14:42;14.10;;;7.18;;
42430;SDS011;28070;47.462;19.036;2022-08-20T00:17:10;11.90;;;7.03;;
42430;SDS011;28070;47.462;19.036;2022-08-20T00:19:39;16.75;;;6.82;;
42430;SDS011;28070;47.462;19.036;2022-08-20T00:22:07;12.98;;;6.72;;
42430;SDS011;28070;47.462;19.036;2022-08-20T00:24:35;12.00;;;6.50;;
42430;SDS011;28070;47.462;19.036;2022-08-20T00:27:05;14.23;;;6.40;;
42430;SDS011;28070;47.462;19.036;2022-08-20T00:29:33;12.63;;;6.55;;
42430;SDS011;28070;47.462;19.036;2022-08-20T00:32:01;13.65;;;7.38;;
42430;SDS011;28070;47.462;19.036;2022-08-20T00:34:30;15.02;;;7.80;;
42430;SDS011;28070;47.462;19.036;2022-08-20T00:36:58;15.52;;;8.10;;
42430;SDS011;28070;47.462;19.036;2022-08-20T00:39:26;12.77;;;8.23;;
42430;SDS011;28070;47.462;19.036;2022-08-20T00:41:54;13.55;;;8.88;;
42430;SDS011;28070;47.462;19.036;2022-08-20T00:44:24;15.85;;;9.40;;
42430;SDS011;28070;47.462;19.036;2022-08-20T00:46:53;20.08;;;9.45;;
42430;SDS011;28070;47.462;19.036;2022-08-20T00:49:22;17.83;;;9.63;;
42430;SDS011;28070;47.462;19.036;2022-08-20T00:51:55;17.23;;;10.63;;
42430;SDS011;28070;47.462;19.036;2022-08-20T00:54:27;17.15;;;10.75;;
42430;SDS011;28070;47.462;19.036;2022-08-20T00:57:01;17.75;;;11.32;;
42430;SDS011;28070;47.462;19.036;2022-08-20T00:59:34;16.45;;;11.35;;
42430;SDS011;28070;47.462;19.036;2022-08-20T01:02:07;17.20;;;11.27;;
42430;SDS011;28070;47.462;19.036;2022-08-20T01:04:38;19.23;;;11.25;;
42430;SDS011;28070;47.462;19.036;2022-08-20T01:07:09;17.05;;;11.38;;
42430;SDS011;28070;47.462;19.036;2022-08-20T01:09:37;22.63;;;11.50;;
42430;SDS011;28070;47.462;19.036;2022-08-20T01:12:24;18.33;;;11.05;;
42430;SDS011;28070;47.462;19.036;2022-08-20T01:14:54;16.60;;;10.57;;
42430;SDS011;28070;47.462;19.036;2022-08-20T01:17:26;16.40;;;10.20;;
42430;SDS011;28070;47.462;19.036;2022-08-20T01:20:00;13.95;;;9.57;;
42430;SDS011;28070;47.462;19.036;2022-08-20T01:25:26;14.88;;;8.48;;
42430;SDS011;28070;47.462;19.036;2022-08-20T01:28:01;16.77;;;8.10;;
42430;SDS011;28070;47.462;19.036;2022-08-20T01:30:30;14.70;;;7.05;;
42430;SDS011;28070;47.462;19.036;2022-08-20T01:32:59;13.98;;;7.40;;
42430;SDS011;28070;47.462;19.036;2022-08-20T01:35:28;10.88;;;6.25;;
42430;SDS011;28070;47.462;19.036;2022-08-20T01:37:56;17.77;;;6.75;;
42430;SDS011;28070;47.462;19.036;2022-08-20T01:40:33;16.42;;;6.78;;
42430;SDS011;28070;47.462;19.036;2022-08-20T01:43:16;14.38;;;7.15;;
42430;SDS011;28070;47.462;19.036;2022-08-20T01:45:46;12.85;;;6.25;;
42430;SDS011;28070;47.462;19.036;2022-08-20T01:48:15;17.88;;;6.72;;
42430;SDS011;28070;47.462;19.036;2022-08-20T01:50:48;14.35;;;6.30;;
42430;SDS011;28070;47.462;19.036;2022-08-20T01:53:24;15.57;;;6.63;;
42430;SDS011;28070;47.462;19.036;2022-08-20T01:55:55;15.05;;;6.65;;
42430;SDS011;28070;47.462;19.036;2022-08-20T01:58:24;15.98;;;6.85;;
42430;SDS011;28070;47.462;19.036;2022-08-20T02:00:55;14.30;;;5.65;;
42430;SDS011;28070;47.462;19.036;2022-08-20T02:03:24;17.15;;;6.45;;
42430;SDS011;28070;47.462;19.036;2022-08-20T02:05:52;13.98;;;6.60;;
42430;SDS011;28070;47.462;19.036;2022-08-20T02:08:21;14.05;;;6.68;;
42430;SDS011;28070;47.462;19.036;2022-08-20T02:10:50;15.10;;;6.72;;
42430;SDS011;28070;47.462;19.036;2022-08-20T02:13:18;14.23;;;6.82;;
42430;SDS011;28070;47.462;19.036;2022-08-20T02:15:48;15.65;;;6.80;;
42430;SDS011;28070;47.462;19.036;2022-08-20T02:18:17;15.68;;;6.80;;
42430;SDS011;28070;47.462;19.036;2022-08-20T02:20:46;16.60;;;7.13;;
42430;SDS011;28070;47.462;19.036;2022-08-20T02:23:17;17.80;;;7.57;;
42430;SDS011;28070;47.462;19.036;2022-08-20T02:25:45;15.70;;;8.27;;
42430;SDS011;28070;47.462;19.036;2022-08-20T02:28:15;14.55;;;8.27;;
42430;SDS011;28070;47.462;19.036;2022-08-20T02:30:47;14.60;;;8.50;;
42430;SDS011;28070;47.462;19.036;2022-08-20T02:33:19;17.38;;;8.88;;
42430;SDS011;28070;47.462;19.036;2022-08-20T02:35:50;19.60;;;9.55;;
42430;SDS011;28070;47.462;19.036;2022-08-20T02:38:22;17.73;;;8.73;;
42430;SDS011;28070;47.462;19.036;2022-08-20T02:40:51;17.77;;;8.20;;
42430;SDS011;28070;47.462;19.036;2022-08-20T02:43:19;14.55;;;7.22;;
42430;SDS011;28070;47.462;19.036;2022-08-20T02:45:48;16.30;;;7.82;;
42430;SDS011;28070;47.462;19.036;2022-08-20T02:48:18;12.95;;;7.10;;
42430;SDS011;28070;47.462;19.036;2022-08-20T02:50:49;12.82;;;6.88;;
42430;SDS011;28070;47.462;19.036;2022-08-20T02:53:21;11.13;;;7.45;;
42430;SDS011;28070;47.462;19.036;2022-08-20T02:55:49;12.32;;;6.45;;
42430;SDS011;28070;47.462;19.036;2022-08-20T02:58:18;15.10;;;6.38;;
42430;SDS011;28070;47.462;19.036;2022-08-20T03:00:47;14.30;;;6.35;;
42430;SDS011;28070;47.462;19.036;2022-08-20T03:03:17;12.98;;;5.75;;
42430;SDS011;28070;47.462;19.036;2022-08-20T03:05:48;13.38;;;5.45;;
42430;SDS011;28070;47.462;19.036;2022-08-20T03:08:19;12.70;;;5.13;;
42430;SDS011;28070;47.462;19.036;2022-08-20T03:10:48;11.63;;;5.65;;
42430;SDS011;28070;47.462;19.036;2022-08-20T03:13:19;10.60;;;5.35;;
42430;SDS011;28070;47.462;19.036;2022-08-20T03:15:52;14.18;;;5.63;;
42430;SDS011;28070;47.462;19.036;2022-08-20T03:18:26;12.50;;;5.28;;
42430;SDS011;28070;47.462;19.036;2022-08-20T03:20:56;11.88;;;5.78;;
42430;SDS011;28070;47.462;19.036;2022-08-20T03:23:24;11.93;;;6.45;;
42430;SDS011;28070;47.462;19.036;2022-08-20T03:25:52;14.52;;;6.82;;
42430;SDS011;28070;47.462;19.036;2022-08-20T03:28:21;12.15;;;6.82;;
42430;SDS011;28070;47.462;19.036;2022-08-20T03:30:51;14.63;;;7.68;;
42430;SDS011;28070;47.462;19.036;2022-08-20T03:33:20;13.18;;;6.53;;
42430;SDS011;28070;47.462;19.036;2022-08-20T03:35:49;12.88;;;6.43;;
42430;SDS011;28070;47.462;19.036;2022-08-20T03:38:18;13.35;;;7.20;;
42430;SDS011;28070;47.462;19.036;2022-08-20T03:40:59;12.25;;;7.40;;
42430;SDS011;28070;47.462;19.036;2022-08-20T03:43:27;15.50;;;6.63;;
42430;SDS011;28070;47.462;19.036;2022-08-20T03:45:58;13.43;;;6.88;;
42430;SDS011;28070;47.462;19.036;2022-08-20T03:48:26;11.00;;;7.40;;
42430;SDS011;28070;47.462;19.036;2022-08-20T03:50:55;14.15;;;7.97;;
42430;SDS011;28070;47.462;19.036;2022-08-20T03:53:26;14.07;;;7.85;;
42430;SDS011;28070;47.462;19.036;2022-08-20T03:55:57;15.43;;;9.10;;
42430;SDS011;28070;47.462;19.036;2022-08-20T03:58:29;15.38;;;8.50;;
42430;SDS011;28070;47.462;19.036;2022-08-20T04:01:03;16.20;;;8.05;;
42430;SDS011;28070;47.462;19.036;2022-08-20T04:03:32;14.15;;;8.18;;
42430;SDS011;28070;47.462;19.036;2022-08-20T04:06:01;17.48;;;9.00;;
42430;SDS011;28070;47.462;19.036;2022-08-20T04:08:29;12.85;;;8.00;;
42430;SDS011;28070;47.462;19.036;2022-08-20T04:10:58;13.85;;;7.90;;
42430;SDS011;28070;47.462;19.036;2022-08-20T04:13:27;14.40;;;7.68;;
42430;SDS011;28070;47.462;19.036;2022-08-20T04:15:57;14.73;;;8.07;;
42430;SDS011;28070;47.462;19.036;2022-08-20T04:18:30;16.90;;;8.02;;
42430;SDS011;28070;47.462;19.036;2022-08-20T04:20:59;16.55;;;7.82;;
42430;SDS011;28070;47.462;19.036;2022-08-20T04:23:28;15.48;;;7.85;;
42430;SDS011;28070;47.462;19.036;2022-08-20T04:25:56;13.32;;;7.30;;
42430;SDS011;28070;47.462;19.036;2022-08-20T04:28:26;14.18;;;7.38;;
42430;SDS011;28070;47.462;19.036;2022-08-20T04:30:56;11.07;;;6.68;;
42430;SDS011;28070;47.462;19.036;2022-08-20T04:33:27;13.52;;;6.95;;
42430;SDS011;28070;47.462;19.036;2022-08-20T04:36:03;15.93;;;6.85;;
42430;SDS011;28070;47.462;19.036;2022-08-20T04:38:32;12.77;;;6.63;;
42430;SDS011;28070;47.462;19.036;2022-08-20T04:41:16;15.57;;;6.65;;
42430;SDS011;28070;47.462;19.036;2022-08-20T04:43:49;13.90;;;6.32;;
42430;SDS011;28070;47.462;19.036;2022-08-20T04:46:20;12.82;;;6.05;;
42430;SDS011;28070;47.462;19.036;2022-08-20T04:48:49;10.77;;;5.75;;
42430;SDS011;28070;47.462;19.036;2022-08-20T04:51:19;14.98;;;5.70;;
42430;SDS011;28070;47.462;19.036;2022-08-20T04:53:49;13.27;;;6.07;;
42430;SDS011;28070;47.462;19.036;2022-08-20T04:56:19;13.75;;;5.85;;
42430;SDS011;28070;47.462;19.036;2022-08-20T04:58:49;11.45;;;5.60;;
42430;SDS011;28070;47.462;19.036;2022-08-20T05:01:19;15.45;;;5.63;;
42430;SDS011;28070;47.462;19.036;2022-08-20T05:03:49;12.40;;;5.93;;
42430;SDS011;28070;47.462;19.036;2022-08-20T05:06:22;12.45;;;5.68;;
42430;SDS011;28070;47.462;19.036;2022-08-20T05:08:53;16.58;;;6.70;;
42430;SDS011;28070;47.462;19.036;2022-08-20T05:11:21;14.77;;;6.95;;
42430;SDS011;28070;47.462;19.036;2022-08-20T05:14:03;14.82;;;7.47;;
42430;SDS011;28070;47.462;19.036;2022-08-20T05:16:34;13.30;;;7.00;;
42430;SDS011;28070;47.462;19.036;2022-08-20T05:19:06;15.27;;;7.22;;
42430;SDS011;28070;47.462;19.036;2022-08-20T05:21:39;14.50;;;7.35;;
42430;SDS011;28070;47.462;19.036;2022-08-20T05:24:07;16.55;;;6.90;;
42430;SDS011;28070;47.462;19.036;2022-08-20T05:26:37;11.88;;;6.78;;
42430;SDS011;28070;47.462;19.036;2022-08-20T05:29:05;14.98;;;7.57;;
42430;SDS011;28070;47.462;19.036;2022-08-20T05:31:34;12.77;;;6.68;;
42430;SDS011;28070;47.462;19.036;2022-08-20T05:34:05;17.25;;;7.88;;
42430;SDS011;28070;47.462;19.036;2022-08-20T05:36:39;13.15;;;7.43;;
42430;SDS011;28070;47.462;19.036;2022-08-20T05:39:10;12.73;;;7.70;;
42430;SDS011;28070;47.462;19.036;2022-08-20T05:41:39;15.95;;;8.18;;
42430;SDS011;28070;47.462;19.036;2022-08-20T05:44:08;19.23;;;7.45;;
42430;SDS011;28070;47.462;19.036;2022-08-20T05:46:39;16.90;;;7.22;;
42430;SDS011;28070;47.462;19.036;2022-08-20T05:49:09;14.57;;;7.80;;
42430;SDS011;28070;47.462;19.036;2022-08-20T05:51:41;13.05;;;6.85;;
42430;SDS011;28070;47.462;19.036;2022-08-20T05:54:10;14.80;;;6.57;;
42430;SDS011;28070;47.462;19.036;2022-08-20T05:56:39;14.35;;;6.88;;
42430;SDS011;28070;47.462;19.036;2022-08-20T05:59:08;14.30;;;6.07;;
42430;SDS011;28070;47.462;19.036;2022-08-20T06:01:38;10.32;;;5.75;;
42430;SDS011;28070;47.462;19.036;2022-08-20T06:04:07;10.18;;;6.10;;
42430;SDS011;28070;47.462;19.036;2022-08-20T06:06:52;15.90;;;5.85;;
42430;SDS011;28070;47.462;19.036;2022-08-20T06:09:23;10.32;;;5.63;;
42430;SDS011;28070;47.462;19.036;2022-08-20T06:11:58;14.18;;;8.32;;
42430;SDS011;28070;47.462;19.036;2022-08-20T06:14:28;16.33;;;12.65;;
42430;SDS011;28070;47.462;19.036;2022-08-20T06:17:01;12.48;;;7.30;;
42430;SDS011;28070;47.462;19.036;2022-08-20T06:19:31;12.75;;;6.13;;
42430;SDS011;28070;47.462;19.036;2022-08-20T06:22:02;12.80;;;6.32;;
42430;SDS011;28070;47.462;19.036;2022-08-20T06:24:47;13.90;;;5.90;;
42430;SDS011;28070;47.462;19.036;2022-08-20T06:27:15;11.13;;;6.03;;
42430;SDS011;28070;47.462;19.036;2022-08-20T06:29:43;10.52;;;5.70;;
42430;SDS011;28070;47.462;19.036;2022-08-20T06:32:12;13.60;;;6.35;;
42430;SDS011;28070;47.462;19.036;2022-08-20T06:34:40;13.60;;;6.40;;
42430;SDS011;28070;47.462;19.036;2022-08-20T06:37:18;16.30;;;8.00;;
42430;SDS011;28070;47.462;19.036;2022-08-20T06:39:59;12.93;;;6.50;;
42430;SDS011;28070;47.462;19.036;2022-08-20T06:42:30;16.98;;;6.50;;
42430;SDS011;28070;47.462;19.036;2022-08-20T06:44:58;11.70;;;6.50;;
42430;SDS011;28070;47.462;19.036;2022-08-20T06:47:31;14.20;;;7.07;;
42430;SDS011;28070;47.462;19.036;2022-08-20T06:50:00;9.88;;;6.28;;
42430;SDS011;28070;47.462;19.036;2022-08-20T06:52:29;13.77;;;6.25;;
42430;SDS011;28070;47.462;19.036;2022-08-20T06:55:18;15.43;;;7.00;;
42430;SDS011;28070;47.462;19.036;2022-08-20T06:57:46;13.23;;;6.20;;
42430;SDS011;28070;47.462;19.036;2022-08-20T07:00:24;14.00;;;6.60;;
42430;SDS011;28070;47.462;19.036;2022-08-20T07:02:53;10.85;;;5.72;;
42430;SDS011;28070;47.462;19.036;2022-08-20T07:05:21;13.20;;;5.30;;
42430;SDS011;28070;47.462;19.036;2022-08-20T07:07:51;12.00;;;5.38;;
42430;SDS011;28070;47.462;19.036;2022-08-20T07:10:19;12.18;;;5.35;;
42430;SDS011;28070;47.462;19.036;2022-08-20T07:12:50;15.05;;;5.72;;
42430;SDS011;28070;47.462;19.036;2022-08-20T07:15:19;13.00;;;5.93;;
42430;SDS011;28070;47.462;19.036;2022-08-20T07:17:49;13.30;;;6.10;;
42430;SDS011;28070;47.462;19.036;2022-08-20T07:22:52;14.98;;;5.90;;
42430;SDS011;28070;47.462;19.036;2022-08-20T07:25:21;17.83;;;6.28;;
42430;SDS011;28070;47.462;19.036;2022-08-20T07:27:50;13.10;;;6.05;;
42430;SDS011;28070;47.462;19.036;2022-08-20T07:30:19;16.25;;;5.65;;
42430;SDS011;28070;47.462;19.036;2022-08-20T07:33:23;14.48;;;5.28;;
42430;SDS011;28070;47.462;19.036;2022-08-20T07:35:54;16.20;;;5.82;;
42430;SDS011;28070;47.462;19.036;2022-08-20T07:38:24;15.30;;;5.75;;
42430;SDS011;28070;47.462;19.036;2022-08-20T07:40:54;16.70;;;5.63;;
42430;SDS011;28070;47.462;19.036;2022-08-20T07:43:23;15.80;;;5.88;;
42430;SDS011;28070;47.462;19.036;2022-08-20T07:45:54;13.65;;;5.22;;
42430;SDS011;28070;47.462;19.036;2022-08-20T07:48:28;14.43;;;6.15;;
42430;SDS011;28070;47.462;19.036;2022-08-20T07:50:58;14.20;;;7.43;;
42430;SDS011;28070;47.462;19.036;2022-08-20T07:53:32;20.13;;;8.52;;
42430;SDS011;28070;47.462;19.036;2022-08-20T07:56:02;14.32;;;9.07;;
42430;SDS011;28070;47.462;19.036;2022-08-20T07:58:33;17.33;;;9.32;;
42430;SDS011;28070;47.462;19.036;2022-08-20T08:01:03;17.20;;;8.30;;
42430;SDS011;28070;47.462;19.036;2022-08-20T08:03:32;18.20;;;8.55;;
42430;SDS011;28070;47.462;19.036;2022-08-20T08:06:15;13.63;;;7.40;;
42430;SDS011;28070;47.462;19.036;2022-08-20T08:08:59;15.65;;;7.75;;
42430;SDS011;28070;47.462;19.036;2022-08-20T08:11:30;19.58;;;8.68;;
42430;SDS011;28070;47.462;19.036;2022-08-20T08:14:02;17.50;;;7.85;;
42430;SDS011;28070;47.462;19.036;2022-08-20T08:16:33;15.88;;;8.85;;
42430;SDS011;28070;47.462;19.036;2022-08-20T08:19:03;22.55;;;9.32;;
42430;SDS011;28070;47.462;19.036;2022-08-20T08:21:37;19.25;;;9.52;;
42430;SDS011;28070;47.462;19.036;2022-08-20T08:24:08;19.77;;;9.95;;
42430;SDS011;28070;47.462;19.036;2022-08-20T08:26:39;17.90;;;10.20;;
42430;SDS011;28070;47.462;19.036;2022-08-20T08:29:08;15.02;;;9.15;;
42430;SDS011;28070;47.462;19.036;2022-08-20T08:31:37;14.95;;;8.98;;
42430;SDS011;28070;47.462;19.036;2022-08-20T08:34:06;16.65;;;8.80;;
42430;SDS011;28070;47.462;19.036;2022-08-20T08:36:34;21.20;;;8.82;;
42430;SDS011;28070;47.462;19.036;2022-08-20T08:39:04;19.70;;;10.02;;
42430;SDS011;28070;47.462;19.036;2022-08-20T08:41:35;17.17;;;9.57;;
42430;SDS011;28070;47.462;19.036;2022-08-20T08:46:38;16.10;;;11.52;;
42430;SDS011;28070;47.462;19.036;2022-08-20T08:49:09;18.50;;;12.18;;
42430;SDS011;28070;47.462;19.036;2022-08-20T08:51:39;24.58;;;13.05;;
42430;SDS011;28070;47.462;19.036;2022-08-20T08:54:12;26.15;;;16.80;;
42430;SDS011;28070;47.462;19.036;2022-08-20T08:56:44;25.23;;;15.15;;
42430;SDS011;28070;47.462;19.036;2022-08-20T08:59:16;24.83;;;15.35;;
42430;SDS011;28070;47.462;19.036;2022-08-20T09:01:47;23.25;;;14.73;;
42430;SDS011;28070;47.462;19.036;2022-08-20T09:04:22;24.13;;;14.40;;
42430;SDS011;28070;47.462;19.036;2022-08-20T09:06:57;23.73;;;15.15;;
42430;SDS011;28070;47.462;19.036;2022-08-20T09:09:27;20.20;;;13.80;;
42430;SDS011;28070;47.462;19.036;2022-08-20T09:12:03;26.27;;;14.68;;
42430;SDS011;28070;47.462;19.036;2022-08-20T09:14:34;22.38;;;13.15;;
42430;SDS011;28070;47.462;19.036;2022-08-20T09:17:02;21.80;;;12.05;;
42430;SDS011;28070;47.462;19.036;2022-08-20T09:19:31;21.23;;;11.70;;
42430;SDS011;28070;47.462;19.036;2022-08-20T09:22:05;17.70;;;10.98;;
42430;SDS011;28070;47.462;19.036;2022-08-20T09:24:35;20.70;;;10.85;;
42430;SDS011;28070;47.462;19.036;2022-08-20T09:27:05;19.27;;;10.73;;
42430;SDS011;28070;47.462;19.036;2022-08-20T09:29:33;20.75;;;10.68;;
42430;SDS011;28070;47.462;19.036;2022-08-20T09:32:02;20.00;;;9.48;;
42430;SDS011;28070;47.462;19.036;2022-08-20T09:34:35;20.67;;;10.07;;
42430;SDS011;28070;47.462;19.036;2022-08-20T09:37:04;17.98;;;9.40;;
42430;SDS011;28070;47.462;19.036;2022-08-20T09:39:33;20.77;;;9.52;;
42430;SDS011;28070;47.462;19.036;2022-08-20T09:42:07;18.60;;;10.05;;
42430;SDS011;28070;47.462;19.036;2022-08-20T09:44:36;16.25;;;10.02;;
42430;SDS011;28070;47.462;19.036;2022-08-20T09:47:05;19.48;;;10.70;;
42430;SDS011;28070;47.462;19.036;2022-08-20T09:49:33;17.02;;;10.40;;
42430;SDS011;28070;47.462;19.036;2022-08-20T09:52:04;16.38;;;9.30;;
42430;SDS011;28070;47.462;19.036;2022-08-20T09:54:34;17.52;;;9.55;;
42430;SDS011;28070;47.462;19.036;2022-08-20T09:57:11;15.15;;;9.68;;
42430;SDS011;28070;47.462;19.036;2022-08-20T09:59:39;16.85;;;10.13;;
42430;SDS011;28070;47.462;19.036;2022-08-20T10:02:08;22.55;;;10.15;;
42430;SDS011;28070;47.462;19.036;2022-08-20T10:04:36;16.98;;;10.18;;
42430;SDS011;28070;47.462;19.036;2022-08-20T10:07:06;21.80;;;10.95;;
42430;SDS011;28070;47.462;19.036;2022-08-20T10:09:36;21.83;;;11.38;;
42430;SDS011;28070;47.462;19.036;2022-08-20T10:12:05;15.25;;;9.98;;
42430;SDS011;28070;47.462;19.036;2022-08-20T10:14:35;20.45;;;10.55;;
42430;SDS011;28070;47.462;19.036;2022-08-20T10:17:03;15.32;;;9.32;;
42430;SDS011;28070;47.462;19.036;2022-08-20T10:19:32;18.20;;;9.65;;
42430;SDS011;28070;47.462;19.036;2022-08-20T10:22:00;13.95;;;8.35;;
42430;SDS011;28070;47.462;19.036;2022-08-20T10:24:28;13.52;;;6.90;;
42430;SDS011;28070;47.462;19.036;2022-08-20T10:26:57;14.13;;;7.28;;
42430;SDS011;28070;47.462;19.036;2022-08-20T10:29:27;13.68;;;7.60;;
42430;SDS011;28070;47.462;19.036;2022-08-20T10:32:02;18.75;;;7.55;;
42430;SDS011;28070;47.462;19.036;2022-08-20T10:34:37;15.25;;;8.23;;
42430;SDS011;28070;47.462;19.036;2022-08-20T10:37:06;14.00;;;7.68;;
42430;SDS011;28070;47.462;19.036;2022-08-20T10:39:35;13.40;;;7.30;;
42430;SDS011;28070;47.462;19.036;2022-08-20T10:42:03;11.70;;;7.32;;
42430;SDS011;28070;47.462;19.036;2022-08-20T10:44:32;14.60;;;7.47;;
42430;SDS011;28070;47.462;19.036;2022-08-20T10:47:13;14.40;;;7.07;;
42430;SDS011;28070;47.462;19.036;2022-08-20T10:49:42;13.40;;;6.00;;
42430;SDS011;28070;47.462;19.036;2022-08-20T10:52:11;13.07;;;6.72;;
42430;SDS011;28070;47.462;19.036;2022-08-20T10:54:39;13.18;;;7.15;;
42430;SDS011;28070;47.462;19.036;2022-08-20T10:57:08;13.45;;;6.40;;
42430;SDS011;28070;47.462;19.036;2022-08-20T10:59:41;15.30;;;7.30;;
42430;SDS011;28070;47.462;19.036;2022-08-20T11:02:10;13.20;;;7.03;;
42430;SDS011;28070;47.462;19.036;2022-08-20T11:04:40;14.95;;;6.85;;
42430;SDS011;28070;47.462;19.036;2022-08-20T11:07:09;16.00;;;7.60;;
42430;SDS011;28070;47.462;19.036;2022-08-20T11:09:39;16.50;;;7.40;;
42430;SDS011;28070;47.462;19.036;2022-08-20T11:12:07;14.27;;;7.30;;
42430;SDS011;28070;47.462;19.036;2022-08-20T11:14:36;13.52;;;7.05;;
42430;SDS011;28070;47.462;19.036;2022-08-20T11:17:04;13.98;;;6.88;;
42430;SDS011;28070;47.462;19.036;2022-08-20T11:19:37;14.77;;;6.93;;
42430;SDS011;28070;47.462;19.036;2022-08-20T11:22:07;14.15;;;6.20;;
42430;SDS011;28070;47.462;19.036;2022-08-20T11:24:36;12.15;;;5.72;;
42430;SDS011;28070;47.462;19.036;2022-08-20T11:27:05;13.30;;;5.25;;
42430;SDS011;28070;47.462;19.036;2022-08-20T11:29:34;10.63;;;5.28;;
42430;SDS011;28070;47.462;19.036;2022-08-20T11:32:02;13.50;;;5.75;;
42430;SDS011;28070;47.462;19.036;2022-08-20T11:34:32;11.75;;;5.60;;
42430;SDS011;28070;47.462;19.036;2022-08-20T11:37:00;12.52;;;5.45;;
42430;SDS011;28070;47.462;19.036;2022-08-20T11:39:30;14.27;;;6.07;;
42430;SDS011;28070;47.462;19.036;2022-08-20T11:41:58;13.35;;;6.35;;
42430;SDS011;28070;47.462;19.036;2022-08-20T11:44:27;15.13;;;6.20;;
42430;SDS011;28070;47.462;19.036;2022-08-20T11:46:55;14.20;;;6.50;;
42430;SDS011;28070;47.462;19.036;2022-08-20T11:49:28;11.18;;;6.05;;
42430;SDS011;28070;47.462;19.036;2022-08-20T11:51:57;10.40;;;6.30;;
42430;SDS011;28070;47.462;19.036;2022-08-20T11:54:26;11.35;;;6.72;;
42430;SDS011;28070;47.462;19.036;2022-08-20T11:56:56;14.45;;;6.85;;
42430;SDS011;28070;47.462;19.036;2022-08-20T11:59:25;12.88;;;6.15;;
42430;SDS011;28070;47.462;19.036;2022-08-20T12:01:59;13.20;;;5.72;;
42430;SDS011;28070;47.462;19.036;2022-08-20T12:04:29;11.90;;;5.50;;
42430;SDS011;28070;47.462;19.036;2022-08-20T12:07:06;15.82;;;6.20;;
42430;SDS011;28070;47.462;19.036;2022-08-20T12:09:35;12.38;;;6.40;;
42430;SDS011;28070;47.462;19.036;2022-08-20T12:12:17;13.18;;;6.40;;
42430;SDS011;28070;47.462;19.036;2022-08-20T12:14:47;12.10;;;6.75;;
42430;SDS011;28070;47.462;19.036;2022-08-20T12:17:16;12.32;;;6.75;;
42430;SDS011;28070;47.462;19.036;2022-08-20T12:19:50;14.20;;;6.47;;
42430;SDS011;28070;47.462;19.036;2022-08-20T12:22:19;14.82;;;5.97;;
42430;SDS011;28070;47.462;19.036;2022-08-20T12:24:51;13.60;;;6.80;;
42430;SDS011;28070;47.462;19.036;2022-08-20T12:27:22;13.32;;;7.00;;
42430;SDS011;28070;47.462;19.036;2022-08-20T12:29:53;12.75;;;6.47;;
42430;SDS011;28070;47.462;19.036;2022-08-20T12:32:25;13.20;;;7.47;;
42430;SDS011;28070;47.462;19.036;2022-08-20T12:34:54;12.82;;;7.63;;
42430;SDS011;28070;47.462;19.036;2022-08-20T12:37:25;10.63;;;6.28;;
42430;SDS011;28070;47.462;19.036;2022-08-20T12:39:55;15.32;;;7.05;;
42430;SDS011;28070;47.462;19.036;2022-08-20T12:42:27;13.23;;;6.78;;
42430;SDS011;28070;47.462;19.036;2022-08-20T12:44:56;12.30;;;6.72;;
42430;SDS011;28070;47.462;19.036;2022-08-20T12:47:25;18.50;;;8.25;;
42430;SDS011;28070;47.462;19.036;2022-08-20T12:49:56;15.43;;;6.68;;
42430;SDS011;28070;47.462;19.036;2022-08-20T12:52:26;13.38;;;6.20;;
42430;SDS011;28070;47.462;19.036;2022-08-20T12:54:56;11.20;;;5.82;;
42430;SDS011;28070;47.462;19.036;2022-08-20T12:57:26;12.38;;;6.50;;
42430;SDS011;28070;47.462;19.036;2022-08-20T12:59:58;14.27;;;6.75;;
42430;SDS011;28070;47.462;19.036;2022-08-20T13:02:30;11.68;;;5.97;;
42430;SDS011;28070;47.462;19.036;2022-08-20T13:04:58;12.32;;;5.88;;
42430;SDS011;28070;47.462;19.036;2022-08-20T13:07:30;11.82;;;5.57;;
42430;SDS011;28070;47.462;19.036;2022-08-20T13:09:59;13.48;;;5.57;;
42430;SDS011;28070;47.462;19.036;2022-08-20T13:12:29;14.52;;;5.55;;
42430;SDS011;28070;47.462;19.036;2022-08-20T13:14:57;11.95;;;4.93;;
42430;SDS011;28070;47.462;19.036;2022-08-20T13:17:25;13.15;;;4.72;;
42430;SDS011;28070;47.462;19.036;2022-08-20T13:20:05;8.45;;;5.10;;
42430;SDS011;28070;47.462;19.036;2022-08-20T13:22:35;11.82;;;5.05;;
42430;SDS011;28070;47.462;19.036;2022-08-20T13:25:04;11.85;;;4.70;;
42430;SDS011;28070;47.462;19.036;2022-08-20T13:27:35;13.48;;;4.80;;
42430;SDS011;28070;47.462;19.036;2022-08-20T13:30:05;11.07;;;4.50;;
42430;SDS011;28070;47.462;19.036;2022-08-20T13:32:34;10.38;;;4.47;;
42430;SDS011;28070;47.462;19.036;2022-08-20T13:35:03;11.18;;;4.20;;
42430;SDS011;28070;47.462;19.036;2022-08-20T13:37:32;10.35;;;4.20;;
42430;SDS011;28070;47.462;19.036;2022-08-20T13:40:00;11.02;;;4.60;;
42430;SDS011;28070;47.462;19.036;2022-08-20T13:42:29;9.70;;;4.35;;
42430;SDS011;28070;47.462;19.036;2022-08-20T13:44:59;10.98;;;4.40;;
42430;SDS011;28070;47.462;19.036;2022-08-20T13:47:28;11.57;;;4.25;;
42430;SDS011;28070;47.462;19.036;2022-08-20T13:50:00;12.32;;;4.47;;
42430;SDS011;28070;47.462;19.036;2022-08-20T13:52:31;12.38;;;4.40;;
42430;SDS011;28070;47.462;19.036;2022-08-20T13:55:01;8.93;;;4.28;;
42430;SDS011;28070;47.462;19.036;2022-08-20T13:57:32;11.95;;;4.13;;
42430;SDS011;28070;47.462;19.036;2022-08-20T14:00:03;9.75;;;4.00;;
42430;SDS011;28070;47.462;19.036;2022-08-20T14:02:35;10.18;;;3.92;;
42430;SDS011;28070;47.462;19.036;2022-08-20T14:05:03;9.15;;;4.20;;
42430;SDS011;28070;47.462;19.036;2022-08-20T14:07:32;6.38;;;3.47;;
42430;SDS011;28070;47.462;19.036;2022-08-20T14:10:03;10.00;;;4.20;;
42430;SDS011;28070;47.462;19.036;2022-08-20T14:12:33;9.60;;;3.92;;
42430;SDS011;28070;47.462;19.036;2022-08-20T14:15:03;11.32;;;4.05;;
42430;SDS011;28070;47.462;19.036;2022-08-20T14:17:35;6.32;;;3.42;;
42430;SDS011;28070;47.462;19.036;2022-08-20T14:20:05;12.77;;;4.47;;
42430;SDS011;28070;47.462;19.036;2022-08-20T14:22:36;7.47;;;3.70;;
42430;SDS011;28070;47.462;19.036;2022-08-20T14:25:04;9.80;;;4.25;;
42430;SDS011;28070;47.462;19.036;2022-08-20T14:27:34;8.52;;;3.72;;
42430;SDS011;28070;47.462;19.036;2022-08-20T14:30:06;7.22;;;4.10;;
42430;SDS011;28070;47.462;19.036;2022-08-20T14:32:36;13.87;;;4.40;;
42430;SDS011;28070;47.462;19.036;2022-08-20T14:35:05;10.75;;;3.92;;
42430;SDS011;28070;47.462;19.036;2022-08-20T14:37:37;10.70;;;4.00;;
42430;SDS011;28070;47.462;19.036;2022-08-20T14:40:08;11.70;;;3.83;;
42430;SDS011;28070;47.462;19.036;2022-08-20T14:42:40;8.10;;;3.60;;
42430;SDS011;28070;47.462;19.036;2022-08-20T14:45:14;12.77;;;3.87;;
42430;SDS011;28070;47.462;19.036;2022-08-20T14:47:44;13.80;;;4.82;;
42430;SDS011;28070;47.462;19.036;2022-08-20T14:50:20;11.10;;;4.28;;